createdAt,value
2017-05-08T00:00:30.684Z,1007.98
2017-05-08T00:01:39.648Z,1007.99
2017-05-08T00:02:48.931Z,1007.99
2017-05-08T00:03:57.884Z,1008.01
2017-05-08T00:05:06.924Z,1007.98
2017-05-08T00:06:16.181Z,1007.99
2017-05-08T00:07:25.137Z,1007.97
2017-05-08T00:08:34.098Z,1007.98
2017-05-08T00:09:43.056Z,1007.98
2017-05-08T00:10:52.054Z,1008.01
2017-05-08T00:12:01.315Z,1008
2017-05-08T00:13:10.274Z,1008.01
2017-05-08T00:14:19.231Z,1008.04
2017-05-08T00:15:28.191Z,1008.03
2017-05-08T00:16:37.148Z,1007.98
2017-05-08T00:17:46.354Z,1008.02
2017-05-08T00:18:55.310Z,1007.98
2017-05-08T00:20:04.268Z,1007.99
2017-05-08T00:21:13.223Z,1007.93
2017-05-08T00:22:22.182Z,1007.93
2017-05-08T00:23:31.438Z,1007.93
2017-05-08T00:24:40.428Z,1007.94
2017-05-08T00:25:49.385Z,1007.92
2017-05-08T00:26:58.345Z,1007.92
2017-05-08T00:28:07.302Z,1007.9
2017-05-08T00:29:16.509Z,1007.89
2017-05-08T00:30:25.471Z,1007.89
2017-05-08T00:31:34.434Z,1007.88
2017-05-08T00:32:43.398Z,1007.9
2017-05-08T00:33:52.362Z,1007.86
2017-05-08T00:35:01.619Z,1007.84
2017-05-08T00:36:10.580Z,1007.82
2017-05-08T00:37:20.156Z,1007.8
2017-05-08T00:38:29.115Z,1007.8
2017-05-08T00:39:38.083Z,1007.8
2017-05-08T00:40:47.340Z,1007.75
2017-05-08T00:41:56.298Z,1007.73
2017-05-08T00:43:05.263Z,1007.72
2017-05-08T00:44:14.223Z,1007.76
2017-05-08T00:45:23.226Z,1007.73
2017-05-08T00:46:32.435Z,1007.72
2017-05-08T00:47:41.391Z,1007.72
2017-05-08T00:48:50.351Z,1007.68
2017-05-08T00:49:59.309Z,1007.69
2017-05-08T00:51:08.274Z,1007.68
2017-05-08T00:52:17.512Z,1007.65
2017-05-08T00:53:26.471Z,1007.63
2017-05-08T00:54:35.442Z,1007.66
2017-05-08T00:55:44.401Z,1007.61
2017-05-08T00:56:53.357Z,1007.61
2017-05-08T00:58:02.623Z,1007.56
2017-05-08T00:59:11.578Z,1007.54
2017-05-08T01:00:20.554Z,1007.58
2017-05-08T01:01:29.510Z,1007.55
2017-05-08T01:02:38.475Z,1007.59
2017-05-08T01:03:47.735Z,1007.55
2017-05-08T01:04:57.016Z,1007.54
2017-05-08T01:06:05.970Z,1007.53
2017-05-08T01:07:14.931Z,1007.59
2017-05-08T01:08:23.994Z,1007.56
2017-05-08T01:09:33.203Z,1007.54
2017-05-08T01:10:42.171Z,1007.58
2017-05-08T01:11:51.133Z,1007.55
2017-05-08T01:13:00.090Z,1007.5
2017-05-08T01:14:09.052Z,1007.47
2017-05-08T01:15:18.659Z,1007.46
2017-05-08T01:16:27.619Z,1007.47
2017-05-08T01:17:36.663Z,1007.44
2017-05-08T01:18:45.621Z,1007.44
2017-05-08T01:19:54.579Z,1007.46
2017-05-08T01:21:03.840Z,1007.44
2017-05-08T01:22:12.799Z,1007.43
2017-05-08T01:23:21.763Z,1007.49
2017-05-08T01:24:30.720Z,1007.49
2017-05-08T01:25:39.708Z,1007.51
2017-05-08T01:26:48.963Z,1007.48
2017-05-08T01:27:57.920Z,1007.53
2017-05-08T01:29:06.880Z,1007.5
2017-05-08T01:30:15.840Z,1007.51
2017-05-08T01:31:24.807Z,1007.55
2017-05-08T01:32:34.069Z,1007.57
2017-05-08T01:33:43.028Z,1007.57
2017-05-08T01:34:51.986Z,1007.58
2017-05-08T01:36:00.951Z,1007.56
2017-05-08T01:37:09.999Z,1007.53
2017-05-08T01:38:19.579Z,1007.54
2017-05-08T01:39:28.872Z,1007.56
2017-05-08T01:40:37.877Z,1007.55
2017-05-08T01:41:46.853Z,1007.55
2017-05-08T01:42:55.815Z,1007.57
2017-05-08T01:44:05.029Z,1007.57
2017-05-08T01:45:13.993Z,1007.56
2017-05-08T01:46:22.947Z,1007.53
2017-05-08T01:47:31.905Z,1007.54
2017-05-08T01:48:40.862Z,1007.58
2017-05-08T01:49:50.125Z,1007.55
2017-05-08T01:50:59.097Z,1007.57
2017-05-08T01:52:08.064Z,1007.56
2017-05-08T01:53:17.019Z,1007.56
2017-05-08T01:54:25.989Z,1007.56
2017-05-08T01:55:35.248Z,1007.59
2017-05-08T01:56:44.202Z,1007.58
2017-05-08T01:57:53.165Z,1007.57
2017-05-08T01:59:02.121Z,1007.56
2017-05-08T02:00:11.082Z,1007.57
2017-05-08T02:01:20.344Z,1007.54
2017-05-08T02:02:29.302Z,1007.55
2017-05-08T02:03:38.255Z,1007.55
2017-05-08T02:04:47.211Z,1007.52
2017-05-08T02:05:56.184Z,1007.52
2017-05-08T02:07:05.442Z,1007.47
2017-05-08T02:08:14.406Z,1007.5
2017-05-08T02:09:23.410Z,1007.45
2017-05-08T02:10:32.369Z,1007.47
2017-05-08T02:11:41.330Z,1007.45
2017-05-08T02:12:50.585Z,1007.44
2017-05-08T02:13:59.544Z,1007.43
2017-05-08T02:15:08.498Z,1007.43
2017-05-08T02:16:17.455Z,1007.41
2017-05-08T02:17:26.413Z,1007.39
2017-05-08T02:18:35.673Z,1007.37
2017-05-08T02:19:44.632Z,1007.37
2017-05-08T02:20:53.591Z,1007.38
2017-05-08T02:22:02.551Z,1007.36
2017-05-08T02:23:11.508Z,1007.38
2017-05-08T02:24:20.767Z,1007.38
2017-05-08T02:25:29.730Z,1007.38
2017-05-08T02:26:38.773Z,1007.36
2017-05-08T02:27:48.051Z,1007.34
2017-05-08T02:28:57.009Z,1007.33
2017-05-08T02:30:06.273Z,1007.3
2017-05-08T02:31:15.228Z,1007.32
2017-05-08T02:32:24.193Z,1007.34
2017-05-08T02:33:33.150Z,1007.32
2017-05-08T02:34:42.120Z,1007.32
2017-05-08T02:35:51.391Z,1007.3
2017-05-08T02:37:00.349Z,1007.28
2017-05-08T02:38:09.335Z,1007.28
2017-05-08T02:39:18.286Z,1007.29
2017-05-08T02:40:27.372Z,1007.25
2017-05-08T02:41:36.635Z,1007.26
2017-05-08T02:42:45.659Z,1007.27
2017-05-08T02:43:54.609Z,1007.25
2017-05-08T02:45:03.580Z,1007.26
2017-05-08T02:46:12.536Z,1007.22
2017-05-08T02:47:21.814Z,1007.24
2017-05-08T02:48:30.770Z,1007.22
2017-05-08T02:49:39.734Z,1007.24
2017-05-08T02:50:48.783Z,1007.2
2017-05-08T02:51:57.741Z,1007.21
2017-05-08T02:53:06.947Z,1007.23
2017-05-08T02:54:16.238Z,1007.25
2017-05-08T02:55:25.198Z,1007.25
2017-05-08T02:56:34.155Z,1007.3
2017-05-08T02:57:43.111Z,1007.32
2017-05-08T02:58:52.371Z,1007.36
2017-05-08T03:00:01.362Z,1007.4
2017-05-08T03:01:10.423Z,1007.42
2017-05-08T03:02:19.378Z,1007.43
2017-05-08T03:03:28.370Z,1007.43
2017-05-08T03:04:37.634Z,1007.44
2017-05-08T03:05:46.683Z,1007.4
2017-05-08T03:06:55.642Z,1007.39
2017-05-08T03:08:04.602Z,1007.38
2017-05-08T03:09:13.901Z,1007.37
2017-05-08T03:10:23.166Z,1007.4
2017-05-08T03:11:32.118Z,1007.41
2017-05-08T03:12:41.069Z,1007.44
2017-05-08T03:13:50.036Z,1007.47
2017-05-08T03:14:58.992Z,1007.5
2017-05-08T03:16:08.250Z,1007.48
2017-05-08T03:17:17.206Z,1007.45
2017-05-08T03:18:26.170Z,1007.49
2017-05-08T03:19:35.131Z,1007.48
2017-05-08T03:20:44.099Z,1007.5
2017-05-08T03:21:53.358Z,1007.53
2017-05-08T03:23:02.638Z,1007.5
2017-05-08T03:24:11.615Z,1007.48
2017-05-08T03:25:20.911Z,1007.48
2017-05-08T03:26:29.956Z,1007.44
2017-05-08T03:27:39.180Z,1007.43
2017-05-08T03:28:48.464Z,1007.44
2017-05-08T03:29:57.425Z,1007.45
2017-05-08T03:31:06.388Z,1007.41
2017-05-08T03:32:15.352Z,1007.43
2017-05-08T03:33:24.613Z,1007.44
2017-05-08T03:34:33.583Z,1007.48
2017-05-08T03:35:42.535Z,1007.47
2017-05-08T03:36:51.493Z,1007.5
2017-05-08T03:38:00.450Z,1007.48
2017-05-08T03:39:09.712Z,1007.52
2017-05-08T03:40:18.690Z,1007.56
2017-05-08T03:41:27.651Z,1007.59
2017-05-08T03:42:36.611Z,1007.57
2017-05-08T03:43:45.593Z,1007.57
2017-05-08T03:44:54.801Z,1007.59
2017-05-08T03:46:03.767Z,1007.59
2017-05-08T03:47:12.735Z,1007.63
2017-05-08T03:48:21.694Z,1007.6
2017-05-08T03:49:30.657Z,1007.6
2017-05-08T03:50:39.937Z,1007.6
2017-05-08T03:51:48.925Z,1007.62
2017-05-08T03:52:57.888Z,1007.63
2017-05-08T03:54:06.846Z,1007.59
2017-05-08T03:55:15.802Z,1007.6
2017-05-08T03:56:25.006Z,1007.56
2017-05-08T03:57:33.970Z,1007.61
2017-05-08T03:58:43.030Z,1007.62
2017-05-08T03:59:51.999Z,1007.66
2017-05-08T04:01:00.963Z,1007.65
2017-05-08T04:02:10.172Z,1007.71
2017-05-08T04:03:19.135Z,1007.7
2017-05-08T04:04:28.098Z,1007.73
2017-05-08T04:05:37.144Z,1007.74
2017-05-08T04:06:46.104Z,1007.74
2017-05-08T04:07:55.382Z,1007.71
2017-05-08T04:09:04.343Z,1007.72
2017-05-08T04:10:13.301Z,1007.73
2017-05-08T04:11:22.669Z,1007.72
2017-05-08T04:12:31.632Z,1007.7
2017-05-08T04:13:41.066Z,1007.76
2017-05-08T04:14:50.112Z,1007.79
2017-05-08T04:15:59.108Z,1007.83
2017-05-08T04:17:08.162Z,1007.78
2017-05-08T04:18:17.120Z,1007.83
2017-05-08T04:19:26.380Z,1007.83
2017-05-08T04:20:35.343Z,1007.84
2017-05-08T04:21:44.302Z,1007.8
2017-05-08T04:22:53.263Z,1007.82
2017-05-08T04:24:02.224Z,1007.84
2017-05-08T04:25:11.427Z,1007.84
2017-05-08T04:26:20.381Z,1007.83
2017-05-08T04:27:29.662Z,1007.83
2017-05-08T04:28:38.620Z,1007.84
2017-05-08T04:29:47.695Z,1007.81
2017-05-08T04:30:56.904Z,1007.86
2017-05-08T04:32:06.187Z,1007.86
2017-05-08T04:33:15.149Z,1007.87
2017-05-08T04:34:24.108Z,1007.89
2017-05-08T04:35:33.069Z,1007.86
2017-05-08T04:36:42.335Z,1007.83
2017-05-08T04:37:51.385Z,1007.85
2017-05-08T04:39:00.347Z,1007.87
2017-05-08T04:40:09.301Z,1007.9
2017-05-08T04:41:18.261Z,1007.87
2017-05-08T04:42:27.530Z,1007.88
2017-05-08T04:43:36.504Z,1007.88
2017-05-08T04:44:45.469Z,1007.91
2017-05-08T04:45:54.441Z,1007.93
2017-05-08T04:47:03.728Z,1007.96
2017-05-08T04:48:12.987Z,1007.96
2017-05-08T04:49:21.941Z,1007.96
2017-05-08T04:50:30.910Z,1007.98
2017-05-08T04:51:39.866Z,1007.96
2017-05-08T04:52:48.820Z,1007.97
2017-05-08T04:53:58.180Z,1008
2017-05-08T04:55:07.173Z,1008.03
2017-05-08T04:56:16.130Z,1008.02
2017-05-08T04:57:25.088Z,1008.02
2017-05-08T04:58:34.047Z,1008.06
2017-05-08T04:59:43.398Z,1008.07
2017-05-08T05:00:52.443Z,1008.09
2017-05-08T05:02:01.399Z,1008.04
2017-05-08T05:03:10.355Z,1008.06
2017-05-08T05:04:19.313Z,1008.09
2017-05-08T05:05:28.603Z,1008.05
2017-05-08T05:06:37.569Z,1008.04
2017-05-08T05:07:46.536Z,1008.03
2017-05-08T05:08:55.497Z,1008.06
2017-05-08T05:10:04.456Z,1008.02
2017-05-08T05:11:13.799Z,1008.02
2017-05-08T05:12:22.757Z,1008.02
2017-05-08T05:13:31.713Z,1008.04
2017-05-08T05:14:40.760Z,1008.03
2017-05-08T05:15:50.049Z,1008.05
2017-05-08T05:16:59.322Z,1008.07
2017-05-08T05:18:08.367Z,1008.05
2017-05-08T05:19:17.424Z,1008.05
2017-05-08T05:20:26.396Z,1008.03
2017-05-08T05:21:35.372Z,1008.05
2017-05-08T05:22:44.654Z,1008.03
2017-05-08T05:23:53.630Z,1008.02
2017-05-08T05:25:02.607Z,1008.04
2017-05-08T05:26:11.915Z,1008.08
2017-05-08T05:27:21.223Z,1008.09
2017-05-08T05:28:30.509Z,1008.09
2017-05-08T05:29:39.488Z,1008.12
2017-05-08T05:30:48.560Z,1008.12
2017-05-08T05:31:57.539Z,1008.14
2017-05-08T05:33:06.529Z,1008.15
2017-05-08T05:34:15.809Z,1008.12
2017-05-08T05:35:24.790Z,1008.13
2017-05-08T05:36:33.768Z,1008.17
2017-05-08T05:37:42.755Z,1008.18
2017-05-08T05:38:52.148Z,1008.2
2017-05-08T05:40:01.437Z,1008.19
2017-05-08T05:41:10.426Z,1008.25
2017-05-08T05:42:19.405Z,1008.24
2017-05-08T05:43:28.803Z,1008.22
2017-05-08T05:44:37.780Z,1008.2
2017-05-08T05:45:47.059Z,1008.21
2017-05-08T05:46:56.071Z,1008.2
2017-05-08T05:48:05.049Z,1008.2
2017-05-08T05:49:14.202Z,1008.18
2017-05-08T05:50:23.517Z,1008.19
2017-05-08T05:51:32.793Z,1008.19
2017-05-08T05:52:41.771Z,1008.18
2017-05-08T05:53:50.937Z,1008.24
2017-05-08T05:54:59.922Z,1008.21
2017-05-08T05:56:08.908Z,1008.24
2017-05-08T05:57:18.515Z,1008.24
2017-05-08T05:58:27.569Z,1008.3
2017-05-08T05:59:36.849Z,1008.27
2017-05-08T06:00:45.806Z,1008.27
2017-05-08T06:01:54.761Z,1008.27
2017-05-08T06:03:04.295Z,1008.26
2017-05-08T06:04:13.250Z,1008.26
2017-05-08T06:05:22.215Z,1008.19
2017-05-08T06:06:31.178Z,1008.24
2017-05-08T06:07:40.134Z,1008.27
2017-05-08T06:08:49.393Z,1008.25
2017-05-08T06:09:58.351Z,1008.25
2017-05-08T06:11:07.305Z,1008.2
2017-05-08T06:12:16.259Z,1008.23
2017-05-08T06:13:25.215Z,1008.2
2017-05-08T06:14:34.424Z,1008.16
2017-05-08T06:15:43.378Z,1008.2
2017-05-08T06:16:52.342Z,1008.22
2017-05-08T06:18:01.618Z,1008.17
2017-05-08T06:19:10.659Z,1008.2
2017-05-08T06:20:19.920Z,1008.16
2017-05-08T06:21:28.878Z,1008.18
2017-05-08T06:22:37.834Z,1008.18
2017-05-08T06:23:46.792Z,1008.13
2017-05-08T06:24:55.754Z,1008.09
2017-05-08T06:26:05.345Z,1008.09
2017-05-08T06:27:14.301Z,1008.09
2017-05-08T06:28:23.248Z,1008.09
2017-05-08T06:29:32.205Z,1008.11
2017-05-08T06:30:41.168Z,1008.04
2017-05-08T06:31:50.429Z,1008.09
2017-05-08T06:32:59.476Z,1008.09
2017-05-08T06:34:08.429Z,1008.12
2017-05-08T06:35:17.383Z,1008.1
2017-05-08T06:36:26.336Z,1008.09
2017-05-08T06:37:35.591Z,1008.04
2017-05-08T06:38:44.595Z,1008.07
2017-05-08T06:39:53.555Z,1008.08
2017-05-08T06:41:02.510Z,1008.12
2017-05-08T06:42:11.462Z,1008.1
2017-05-08T06:43:20.761Z,1008.11
2017-05-08T06:44:29.724Z,1008.14
2017-05-08T06:45:38.767Z,1008.12
2017-05-08T06:46:47.726Z,1008.15
2017-05-08T06:47:56.683Z,1008.12
2017-05-08T06:49:05.969Z,1008.11
2017-05-08T06:50:14.929Z,1008.12
2017-05-08T06:51:23.887Z,1008.09
2017-05-08T06:52:32.849Z,1008.12
2017-05-08T06:53:41.808Z,1008.17
2017-05-08T06:54:51.151Z,1008.16
2017-05-08T06:56:00.118Z,1008.14
2017-05-08T06:57:09.076Z,1008.13
2017-05-08T06:58:18.365Z,1008.13
2017-05-08T06:59:27.321Z,1008.18
2017-05-08T07:00:36.668Z,1008.15
2017-05-08T07:01:45.711Z,1008.19
2017-05-08T07:02:54.992Z,1008.19
2017-05-08T07:04:03.948Z,1008.18
2017-05-08T07:05:12.915Z,1008.16
2017-05-08T07:06:22.120Z,1008.18
2017-05-08T07:07:31.072Z,1008.19
2017-05-08T07:08:40.031Z,1008.23
2017-05-08T07:09:48.992Z,1008.17
2017-05-08T07:10:57.947Z,1008.17
2017-05-08T07:12:07.229Z,1008.2
2017-05-08T07:13:16.199Z,1008.21
2017-05-08T07:14:25.156Z,1008.21
2017-05-08T07:15:34.110Z,1008.2
2017-05-08T07:16:43.063Z,1008.21
2017-05-08T07:17:52.270Z,1008.22
2017-05-08T07:19:01.229Z,1008.23
2017-05-08T07:20:10.234Z,1008.21
2017-05-08T07:21:19.199Z,1008.22
2017-05-08T07:22:28.159Z,1008.23
2017-05-08T07:23:37.422Z,1008.25
2017-05-08T07:24:46.375Z,1008.24
2017-05-08T07:25:55.366Z,1008.28
2017-05-08T07:27:04.391Z,1008.25
2017-05-08T07:28:13.351Z,1008.28
2017-05-08T07:29:22.564Z,1008.25
2017-05-08T07:30:31.531Z,1008.32
2017-05-08T07:31:40.492Z,1008.25
2017-05-08T07:32:49.451Z,1008.3
2017-05-08T07:33:58.408Z,1008.33
2017-05-08T07:35:07.666Z,1008.32
2017-05-08T07:36:16.621Z,1008.35
2017-05-08T07:37:25.584Z,1008.32
2017-05-08T07:38:34.539Z,1008.34
2017-05-08T07:39:43.494Z,1008.33
2017-05-08T07:40:52.755Z,1008.35
2017-05-08T07:42:01.711Z,1008.33
2017-05-08T07:43:10.763Z,1008.32
2017-05-08T07:44:19.717Z,1008.32
2017-05-08T07:45:28.685Z,1008.35
2017-05-08T07:46:38.053Z,1008.33
2017-05-08T07:47:48.099Z,1008.31
2017-05-08T07:48:57.304Z,1008.31
2017-05-08T07:50:06.399Z,1008.31
2017-05-08T07:51:15.763Z,1008.33
2017-05-08T07:52:25.025Z,1008.36
2017-05-08T07:53:34.088Z,1008.36
2017-05-08T07:54:43.052Z,1008.35
2017-05-08T07:55:52.011Z,1008.37
2017-05-08T07:57:01.028Z,1008.35
2017-05-08T07:58:10.718Z,1008.33
2017-05-08T07:59:19.899Z,1008.4
2017-05-08T08:00:28.949Z,1008.36
2017-05-08T08:01:37.926Z,1008.39
2017-05-08T08:02:46.884Z,1008.41
2017-05-08T08:03:56.191Z,1008.41
2017-05-08T08:05:05.149Z,1008.46
2017-05-08T08:06:14.109Z,1008.42
2017-05-08T08:07:23.063Z,1008.46
2017-05-08T08:08:32.021Z,1008.43
2017-05-08T08:09:41.229Z,1008.43
2017-05-08T08:10:50.271Z,1008.46
2017-05-08T08:11:59.231Z,1008.46
2017-05-08T08:13:08.191Z,1008.45
2017-05-08T08:14:17.159Z,1008.45
2017-05-08T08:15:26.417Z,1008.47
2017-05-08T08:16:35.376Z,1008.51
2017-05-08T08:17:44.336Z,1008.48
2017-05-08T08:18:53.303Z,1008.47
2017-05-08T08:20:02.264Z,1008.45
2017-05-08T08:21:11.530Z,1008.51
2017-05-08T08:22:20.484Z,1008.48
2017-05-08T08:23:29.440Z,1008.47
2017-05-08T08:24:38.401Z,1008.48
2017-05-08T08:25:47.362Z,1008.47
2017-05-08T08:26:56.578Z,1008.53
2017-05-08T08:28:05.541Z,1008.49
2017-05-08T08:29:14.527Z,1008.45
2017-05-08T08:30:23.659Z,1008.52
2017-05-08T08:31:33.827Z,1008.48
2017-05-08T08:32:43.186Z,1008.52
2017-05-08T08:33:52.158Z,1008.54
2017-05-08T08:35:01.171Z,1008.56
2017-05-08T08:36:10.212Z,1008.58
2017-05-08T08:37:19.201Z,1008.56
2017-05-08T08:38:28.526Z,1008.56
2017-05-08T08:39:37.520Z,1008.56
2017-05-08T08:40:48.478Z,1008.63
2017-05-08T08:41:57.511Z,1008.57
2017-05-08T08:43:06.545Z,1008.61
2017-05-08T08:44:15.876Z,1008.63
2017-05-08T08:45:24.971Z,1008.68
2017-05-08T08:46:33.976Z,1008.64
2017-05-08T08:47:42.966Z,1008.66
2017-05-08T08:48:52.016Z,1008.68
2017-05-08T08:50:01.508Z,1008.69
2017-05-08T08:51:10.598Z,1008.71
2017-05-08T08:52:19.792Z,1008.73
2017-05-08T08:53:28.893Z,1008.67
2017-05-08T08:54:37.851Z,1008.68
2017-05-08T08:55:47.104Z,1008.67
2017-05-08T08:56:56.053Z,1008.68
2017-05-08T08:58:05.327Z,1008.68
2017-05-08T08:59:14.281Z,1008.72
2017-05-08T09:00:23.279Z,1008.74
2017-05-08T09:01:32.542Z,1008.71
2017-05-08T09:02:41.554Z,1008.75
2017-05-08T09:03:50.574Z,1008.72
2017-05-08T09:04:59.624Z,1008.78
2017-05-08T09:06:08.584Z,1008.8
2017-05-08T09:07:17.845Z,1008.79
2017-05-08T09:08:26.803Z,1008.71
2017-05-08T09:09:35.763Z,1008.72
2017-05-08T09:10:44.723Z,1008.76
2017-05-08T09:11:53.770Z,1008.69
2017-05-08T09:13:03.026Z,1008.73
2017-05-08T09:14:11.992Z,1008.76
2017-05-08T09:15:20.946Z,1008.73
2017-05-08T09:16:29.902Z,1008.73
2017-05-08T09:17:38.855Z,1008.7
2017-05-08T09:18:48.125Z,1008.73
2017-05-08T09:19:57.082Z,1008.72
2017-05-08T09:21:06.039Z,1008.71
2017-05-08T09:22:14.991Z,1008.75
2017-05-08T09:23:23.946Z,1008.76
2017-05-08T09:24:33.208Z,1008.77
2017-05-08T09:25:42.166Z,1008.79
2017-05-08T09:26:51.217Z,1008.8
2017-05-08T09:28:00.354Z,1008.79
2017-05-08T09:29:09.397Z,1008.88
2017-05-08T09:30:18.611Z,1008.85
2017-05-08T09:31:27.658Z,1008.85
2017-05-08T09:32:36.937Z,1008.84
2017-05-08T09:33:45.892Z,1008.81
2017-05-08T09:34:54.847Z,1008.86
2017-05-08T09:36:04.118Z,1008.83
2017-05-08T09:37:13.080Z,1008.85
2017-05-08T09:38:22.039Z,1008.89
2017-05-08T09:39:30.994Z,1008.86
2017-05-08T09:40:39.953Z,1008.93
2017-05-08T09:41:49.215Z,1008.91
2017-05-08T09:42:58.177Z,1008.93
2017-05-08T09:44:07.146Z,1008.94
2017-05-08T09:45:16.111Z,1008.93
2017-05-08T09:46:25.085Z,1008.86
2017-05-08T09:47:34.348Z,1008.91
2017-05-08T09:48:43.314Z,1008.95
2017-05-08T09:49:52.270Z,1008.98
2017-05-08T09:51:01.227Z,1008.9
2017-05-08T09:52:10.180Z,1008.93
2017-05-08T09:53:19.392Z,1008.93
2017-05-08T09:54:28.351Z,1008.92
2017-05-08T09:55:37.312Z,1008.92
2017-05-08T09:56:46.267Z,1008.95
2017-05-08T09:57:55.229Z,1008.96
2017-05-08T09:59:04.486Z,1008.95
2017-05-08T10:00:13.787Z,1008.94
2017-05-08T10:01:22.745Z,1008.92
2017-05-08T10:02:31.700Z,1008.96
2017-05-08T10:03:40.653Z,1008.92
2017-05-08T10:04:50.002Z,1008.95
2017-05-08T10:05:58.966Z,1008.9
2017-05-08T10:07:08.035Z,1008.96
2017-05-08T10:08:17.004Z,1008.9
2017-05-08T10:09:26.297Z,1008.95
2017-05-08T10:10:35.552Z,1009.02
2017-05-08T10:11:44.511Z,1008.94
2017-05-08T10:12:53.559Z,1008.94
2017-05-08T10:14:02.553Z,1008.95
2017-05-08T10:15:11.857Z,1008.94
2017-05-08T10:16:21.152Z,1008.95
2017-05-08T10:17:30.108Z,1008.97
2017-05-08T10:18:39.072Z,1008.97
2017-05-08T10:19:48.040Z,1008.97
2017-05-08T10:20:56.999Z,1008.94
2017-05-08T10:22:06.209Z,1008.98
2017-05-08T10:23:15.174Z,1008.92
2017-05-08T10:24:24.131Z,1008.97
2017-05-08T10:25:33.092Z,1008.89
2017-05-08T10:26:42.047Z,1008.9
2017-05-08T10:27:51.305Z,1008.9
2017-05-08T10:29:00.270Z,1008.92
2017-05-08T10:30:09.227Z,1008.93
2017-05-08T10:31:18.312Z,1008.91
2017-05-08T10:32:27.789Z,1008.89
2017-05-08T10:33:37.050Z,1008.92
2017-05-08T10:34:46.008Z,1008.89
2017-05-08T10:35:54.961Z,1008.79
2017-05-08T10:37:04.245Z,1008.91
2017-05-08T10:38:13.200Z,1008.92
2017-05-08T10:39:22.459Z,1008.93
2017-05-08T10:40:31.418Z,1008.88
2017-05-08T10:41:40.379Z,1008.87
2017-05-08T10:42:49.335Z,1008.94
2017-05-08T10:43:58.320Z,1008.92
2017-05-08T10:45:07.576Z,1008.96
2017-05-08T10:46:16.531Z,1008.94
2017-05-08T10:47:25.489Z,1008.94
2017-05-08T10:48:34.453Z,1008.98
2017-05-08T10:49:43.584Z,1008.99
2017-05-08T10:50:52.837Z,1009.01
2017-05-08T10:52:01.792Z,1009
2017-05-08T10:53:10.747Z,1009.02
2017-05-08T10:54:19.706Z,1008.99
2017-05-08T10:55:28.665Z,1008.96
2017-05-08T10:56:37.871Z,1008.99
2017-05-08T10:57:46.830Z,1008.96
2017-05-08T10:58:55.790Z,1008.99
2017-05-08T11:00:04.748Z,1008.98
2017-05-08T11:01:13.704Z,1008.99
2017-05-08T11:02:22.964Z,1009.02
2017-05-08T11:03:32.367Z,1009.04
2017-05-08T11:04:41.330Z,1009
2017-05-08T11:05:50.288Z,1009.09
2017-05-08T11:06:59.257Z,1009.1
2017-05-08T11:08:08.518Z,1009.08
2017-05-08T11:09:17.477Z,1009.13
2017-05-08T11:10:26.434Z,1009.1
2017-05-08T11:11:35.391Z,1009.03
2017-05-08T11:12:44.439Z,1009.07
2017-05-08T11:13:53.696Z,1009.14
2017-05-08T11:15:02.658Z,1009.13
2017-05-08T11:16:11.623Z,1009.12
2017-05-08T11:17:20.906Z,1009.04
2017-05-08T11:18:30.277Z,1009.09
2017-05-08T11:19:39.534Z,1009.11
2017-05-08T11:20:48.492Z,1009.11
2017-05-08T11:21:57.448Z,1009.11
2017-05-08T11:23:06.406Z,1009.11
2017-05-08T11:24:15.368Z,1009.14
2017-05-08T11:25:24.626Z,1009.14
2017-05-08T11:26:33.586Z,1009.1
2017-05-08T11:27:42.544Z,1009.19
2017-05-08T11:28:51.501Z,1009.13
2017-05-08T11:30:00.466Z,1009.14
2017-05-08T11:31:09.729Z,1009.1
2017-05-08T11:32:18.689Z,1009.13
2017-05-08T11:33:27.646Z,1009.15
2017-05-08T11:34:36.604Z,1009.16
2017-05-08T11:35:45.564Z,1009.11
2017-05-08T11:36:54.821Z,1009.2
2017-05-08T11:38:03.806Z,1009.18
2017-05-08T11:39:12.850Z,1009.16
2017-05-08T11:40:21.801Z,1009.15
2017-05-08T11:41:31.082Z,1009.14
2017-05-08T11:42:40.346Z,1009.12
2017-05-08T11:43:49.301Z,1009.15
2017-05-08T11:44:58.259Z,1009.11
2017-05-08T11:46:07.222Z,1009.1
2017-05-08T11:47:16.178Z,1009.13
2017-05-08T11:48:25.441Z,1009.13
2017-05-08T11:49:34.395Z,1009.13
2017-05-08T11:50:43.352Z,1009.09
2017-05-08T11:51:52.405Z,1009.07
2017-05-08T11:53:01.361Z,1009.09
2017-05-08T11:54:10.572Z,1009.08
2017-05-08T11:55:19.533Z,1009.09
2017-05-08T11:56:28.500Z,1009.16
2017-05-08T11:57:37.455Z,1009.1
2017-05-08T11:58:46.411Z,1009.1
2017-05-08T11:59:55.674Z,1009.12
2017-05-08T12:01:04.632Z,1009.14
2017-05-08T12:02:13.590Z,1009.16
2017-05-08T12:03:22.639Z,1009.17
2017-05-08T12:04:31.603Z,1009.16
2017-05-08T12:05:41.181Z,1009.15
2017-05-08T12:06:50.144Z,1009.14
2017-05-08T12:07:59.098Z,1009.12
2017-05-08T12:09:08.080Z,1009.16
2017-05-08T12:10:17.036Z,1009.18
2017-05-08T12:11:26.297Z,1009.18
2017-05-08T12:12:35.249Z,1009.22
2017-05-08T12:13:44.209Z,1009.2
2017-05-08T12:14:53.171Z,1009.22
2017-05-08T12:16:02.129Z,1009.2
2017-05-08T12:17:11.389Z,1009.2
2017-05-08T12:18:20.352Z,1009.21
2017-05-08T12:19:29.398Z,1009.2
2017-05-08T12:20:38.354Z,1009.24
2017-05-08T12:21:47.311Z,1009.25
2017-05-08T12:22:56.519Z,1009.27
2017-05-08T12:24:05.471Z,1009.23
2017-05-08T12:25:14.429Z,1009.25
2017-05-08T12:26:23.387Z,1009.24
2017-05-08T12:27:32.343Z,1009.28
2017-05-08T12:28:41.545Z,1009.25
2017-05-08T12:29:50.589Z,1009.24
2017-05-08T12:30:59.556Z,1009.24
2017-05-08T12:32:08.839Z,1009.24
2017-05-08T12:33:17.803Z,1009.22
2017-05-08T12:34:27.097Z,1009.26
2017-05-08T12:35:36.058Z,1009.23
2017-05-08T12:36:45.020Z,1009.29
2017-05-08T12:37:53.978Z,1009.29
2017-05-08T12:39:02.935Z,1009.26
2017-05-08T12:40:12.189Z,1009.27
2017-05-08T12:41:21.152Z,1009.29
2017-05-08T12:42:30.105Z,1009.21
2017-05-08T12:43:39.073Z,1009.25
2017-05-08T12:44:48.357Z,1009.25
2017-05-08T12:45:57.563Z,1009.27
2017-05-08T12:47:06.517Z,1009.27
2017-05-08T12:48:15.560Z,1009.25
2017-05-08T12:49:24.518Z,1009.27
2017-05-08T12:50:33.798Z,1009.27
2017-05-08T12:51:43.059Z,1009.3
2017-05-08T12:52:52.015Z,1009.28
2017-05-08T12:54:01.066Z,1009.29
2017-05-08T12:55:10.024Z,1009.3
2017-05-08T12:56:19.313Z,1009.3
2017-05-08T12:57:28.526Z,1009.33
2017-05-08T12:58:37.489Z,1009.39
2017-05-08T12:59:46.442Z,1009.53
2017-05-08T13:00:55.493Z,1009.6
2017-05-08T13:02:04.450Z,1009.68
2017-05-08T13:03:13.667Z,1009.72
2017-05-08T13:04:22.715Z,1009.77
2017-05-08T13:05:31.756Z,1009.84
2017-05-08T13:06:40.714Z,1009.86
2017-05-08T13:07:49.686Z,1009.89
2017-05-08T13:08:58.893Z,1009.96
2017-05-08T13:10:07.848Z,1009.93
2017-05-08T13:11:16.892Z,1009.97
2017-05-08T13:12:25.848Z,1009.98
2017-05-08T13:13:34.819Z,1009.99
2017-05-08T13:14:44.495Z,1010.01
2017-05-08T13:15:53.451Z,1010.01
2017-05-08T13:17:02.409Z,1010
2017-05-08T13:18:11.361Z,1010.01
2017-05-08T13:19:20.315Z,1010.09
2017-05-08T13:20:29.574Z,1010.06
2017-05-08T13:21:38.614Z,1010.12
2017-05-08T13:22:47.566Z,1010.12
2017-05-08T13:23:56.526Z,1010.14
2017-05-08T13:25:05.483Z,1010.16
2017-05-08T13:26:14.784Z,1010.16
2017-05-08T13:27:23.741Z,1010.12
2017-05-08T13:28:32.697Z,1010.14
2017-05-08T13:29:41.980Z,1010.17
2017-05-08T13:30:51.025Z,1010.24
2017-05-08T13:32:00.280Z,1010.25
2017-05-08T13:33:09.238Z,1010.23
2017-05-08T13:34:18.521Z,1010.28
2017-05-08T13:35:27.476Z,1010.27
2017-05-08T13:36:36.426Z,1010.23
2017-05-08T13:37:45.684Z,1010.31
2017-05-08T13:38:54.643Z,1010.31
2017-05-08T13:40:03.591Z,1010.29
2017-05-08T13:41:12.542Z,1010.28
2017-05-08T13:42:21.495Z,1010.29
2017-05-08T13:43:30.834Z,1010.33
2017-05-08T13:44:39.820Z,1010.32
2017-05-08T13:45:48.771Z,1010.32
2017-05-08T13:46:57.727Z,1010.36
2017-05-08T13:48:06.683Z,1010.4
2017-05-08T13:49:15.892Z,1010.41
2017-05-08T13:50:24.851Z,1010.44
2017-05-08T13:51:33.894Z,1010.39
2017-05-08T13:52:42.943Z,1010.4
2017-05-08T13:53:51.892Z,1010.4
2017-05-08T13:55:01.150Z,1010.47
2017-05-08T13:56:10.106Z,1010.47
2017-05-08T13:57:19.056Z,1010.51
2017-05-08T13:58:28.011Z,1010.47